createdAt,value
2022-12-16T00:00:28.788Z,49.90
2022-12-16T00:01:28.785Z,50.60
2022-12-16T00:02:28.819Z,56.73
2022-12-16T00:03:28.861Z,57.82
2022-12-16T00:04:28.741Z,55.03
2022-12-16T00:05:28.729Z,51.78
2022-12-16T00:06:28.750Z,60.17
2022-12-16T00:07:28.719Z,61.05
2022-12-16T00:08:28.719Z,50.80
2022-12-16T00:09:28.712Z,52.24
2022-12-16T00:10:28.711Z,54.55
2022-12-16T00:11:28.736Z,57.51
2022-12-16T00:12:28.693Z,54.97
2022-12-16T00:13:28.729Z,64.95
2022-12-16T00:14:28.679Z,60.21
2022-12-16T00:15:28.672Z,50.78
2022-12-16T00:16:28.744Z,53.19
2022-12-16T00:17:28.661Z,47.96
2022-12-16T00:18:28.665Z,47.35
2022-12-16T00:19:28.653Z,53.69
2022-12-16T00:20:28.639Z,51.64
2022-12-16T00:21:28.665Z,48.79
2022-12-16T00:22:28.621Z,47.66
2022-12-16T00:23:28.719Z,53.64
2022-12-16T00:24:28.610Z,52.80
2022-12-16T00:25:28.606Z,48.64
2022-12-16T00:26:28.597Z,55.16
2022-12-16T00:27:28.615Z,54.41
2022-12-16T00:28:28.586Z,57.41
2022-12-16T00:29:28.577Z,57.36
2022-12-16T00:30:28.573Z,55.72
2022-12-16T00:31:28.613Z,55.76
2022-12-16T00:32:28.555Z,49.93
2022-12-16T00:33:28.603Z,58.07
2022-12-16T00:34:28.546Z,55.51
2022-12-16T00:35:28.536Z,48.84
2022-12-16T00:36:28.542Z,54.58
2022-12-16T00:37:28.546Z,53.20
2022-12-16T00:38:28.514Z,63.56
2022-12-16T00:39:28.509Z,56.00
2022-12-16T00:40:28.516Z,52.02
2022-12-16T00:41:28.500Z,65.31
2022-12-16T00:42:28.509Z,59.39
2022-12-16T00:43:28.488Z,54.71
2022-12-16T00:44:28.466Z,63.20
2022-12-16T00:45:28.507Z,59.77
2022-12-16T00:46:28.455Z,53.08
2022-12-16T00:47:28.483Z,51.13
2022-12-16T00:48:28.448Z,56.72
2022-12-16T00:49:28.454Z,52.92
2022-12-16T00:50:28.427Z,50.17
2022-12-16T00:51:28.430Z,53.14
2022-12-16T00:52:28.443Z,58.21
2022-12-16T00:53:28.419Z,53.10
2022-12-16T00:54:28.402Z,49.75
2022-12-16T00:55:28.398Z,55.49
2022-12-16T00:56:28.397Z,55.33
2022-12-16T00:57:28.407Z,58.44
2022-12-16T00:58:28.379Z,53.10
2022-12-16T00:59:28.367Z,50.09
2022-12-16T01:00:28.364Z,48.10
2022-12-16T01:01:28.477Z,46.45
2022-12-16T01:02:28.465Z,46.60
2022-12-16T01:03:28.407Z,46.48
2022-12-16T01:04:28.335Z,46.45
2022-12-16T01:05:28.325Z,46.37
2022-12-16T01:06:28.341Z,45.57
2022-12-16T01:07:28.343Z,52.17
2022-12-16T01:08:28.301Z,58.35
2022-12-16T01:09:28.284Z,56.87
2022-12-16T01:10:29.285Z,56.84
2022-12-16T01:11:28.277Z,65.00
2022-12-16T01:12:28.309Z,59.49
2022-12-16T01:13:28.273Z,58.79
2022-12-16T01:14:28.258Z,66.40
2022-12-16T01:15:29.257Z,59.16
2022-12-16T01:16:28.287Z,51.10
2022-12-16T01:17:28.266Z,50.23
2022-12-16T01:18:28.237Z,60.75
2022-12-16T01:19:28.230Z,63.71
2022-12-16T01:20:28.223Z,52.16
2022-12-16T01:21:28.215Z,51.37
2022-12-16T01:22:28.231Z,53.59
2022-12-16T01:23:28.205Z,56.23
2022-12-16T01:24:28.203Z,56.40
2022-12-16T01:25:28.191Z,57.99
2022-12-16T01:26:28.213Z,55.83
2022-12-16T01:27:28.197Z,58.22
2022-12-16T01:28:28.175Z,50.58
2022-12-16T01:29:28.158Z,51.16
2022-12-16T01:30:28.158Z,57.61
2022-12-16T01:31:28.223Z,51.78
2022-12-16T01:32:28.165Z,48.55
2022-12-16T01:33:28.134Z,48.43
2022-12-16T01:34:28.121Z,51.69
2022-12-16T01:35:52.577Z,51.18
2022-12-16T01:36:30.118Z,58.48
2022-12-16T01:37:28.128Z,58.10
2022-12-16T01:38:28.097Z,57.43
2022-12-16T01:39:28.096Z,58.51
2022-12-16T01:40:28.084Z,52.82
2022-12-16T01:41:28.082Z,65.16
2022-12-16T01:42:28.095Z,56.11
2022-12-16T01:43:28.070Z,55.25
2022-12-16T01:44:28.066Z,54.47
2022-12-16T01:45:28.114Z,49.53
2022-12-16T01:46:28.118Z,56.31
2022-12-16T01:47:28.067Z,61.71
2022-12-16T01:48:28.029Z,63.06
2022-12-16T01:49:28.024Z,53.95
2022-12-16T01:50:28.024Z,51.27
2022-12-16T01:51:28.001Z,45.89
2022-12-16T01:52:28.018Z,51.00
2022-12-16T01:53:27.991Z,52.92
2022-12-16T01:54:27.990Z,48.01
2022-12-16T01:55:27.980Z,52.03
2022-12-16T01:56:27.980Z,51.52
2022-12-16T01:57:27.994Z,56.83
2022-12-16T01:58:27.961Z,45.34
2022-12-16T01:59:27.954Z,44.56
2022-12-16T02:00:27.948Z,51.90
2022-12-16T02:01:28.101Z,44.60
2022-12-16T02:02:28.096Z,46.41
2022-12-16T02:03:28.006Z,53.10
2022-12-16T02:04:27.918Z,54.49
2022-12-16T02:05:27.913Z,46.62
2022-12-16T02:06:27.913Z,53.24
2022-12-16T02:07:27.908Z,55.25
2022-12-16T02:08:27.919Z,55.05
2022-12-16T02:09:27.885Z,51.05
2022-12-16T02:10:27.882Z,53.95
2022-12-16T02:11:27.865Z,52.37
2022-12-16T02:12:27.864Z,46.72
2022-12-16T02:13:27.876Z,55.88
2022-12-16T02:14:27.842Z,48.38
2022-12-16T02:15:27.838Z,48.72
2022-12-16T02:16:27.978Z,48.36
2022-12-16T02:17:27.829Z,54.03
2022-12-16T02:18:27.847Z,52.73
2022-12-16T02:19:27.823Z,50.07
2022-12-16T02:20:27.810Z,59.01
2022-12-16T02:21:27.800Z,56.81
2022-12-16T02:22:27.794Z,57.23
2022-12-16T02:23:27.816Z,49.19
2022-12-16T02:24:27.774Z,55.97
2022-12-16T02:25:27.771Z,52.87
2022-12-16T02:26:27.764Z,63.72
2022-12-16T02:27:27.759Z,58.80
2022-12-16T02:28:27.777Z,50.70
2022-12-16T02:29:27.742Z,46.64
2022-12-16T02:30:27.756Z,46.08
2022-12-16T02:31:27.749Z,56.49
2022-12-16T02:32:27.724Z,57.49
2022-12-16T02:33:27.747Z,51.79
2022-12-16T02:34:27.722Z,50.45
2022-12-16T02:35:27.698Z,51.82
2022-12-16T02:36:27.696Z,48.39
2022-12-16T02:37:27.696Z,46.71
2022-12-16T02:38:27.751Z,53.61
2022-12-16T02:39:27.671Z,59.85
2022-12-16T02:40:27.672Z,62.01
2022-12-16T02:41:27.665Z,57.68
2022-12-16T02:42:27.659Z,48.91
2022-12-16T02:43:27.675Z,61.90
2022-12-16T02:44:27.641Z,63.27
2022-12-16T02:45:27.681Z,57.80
2022-12-16T02:46:27.631Z,51.69
2022-12-16T02:47:27.628Z,49.12
2022-12-16T02:48:27.640Z,52.58
2022-12-16T02:49:27.612Z,49.89
2022-12-16T02:50:27.604Z,54.71
2022-12-16T02:51:27.590Z,56.84
2022-12-16T02:52:27.589Z,53.25
2022-12-16T02:53:27.606Z,50.62
2022-12-16T02:54:27.569Z,52.42
2022-12-16T02:55:27.567Z,58.11
2022-12-16T02:56:27.558Z,58.07
2022-12-16T02:57:27.546Z,52.19
2022-12-16T02:58:27.570Z,53.40
2022-12-16T02:59:27.534Z,52.75
2022-12-16T03:00:27.532Z,51.31
2022-12-16T03:01:27.637Z,52.91
2022-12-16T03:02:27.718Z,55.74
2022-12-16T03:03:27.553Z,57.18
2022-12-16T03:04:27.532Z,56.39
2022-12-16T03:05:27.496Z,60.85
2022-12-16T03:06:27.487Z,51.85
2022-12-16T03:07:27.479Z,48.62
2022-12-16T03:08:27.477Z,56.25
2022-12-16T03:09:27.503Z,54.04
2022-12-16T03:10:27.463Z,55.48
2022-12-16T03:11:27.459Z,52.79
2022-12-16T03:12:27.450Z,57.89
2022-12-16T03:13:27.449Z,52.66
2022-12-16T03:14:27.464Z,48.32
2022-12-16T03:15:27.438Z,54.90
2022-12-16T03:16:27.638Z,48.61
2022-12-16T03:17:27.418Z,48.11
2022-12-16T03:18:27.410Z,60.38
2022-12-16T03:19:27.437Z,55.28
2022-12-16T03:20:27.390Z,54.76
2022-12-16T03:21:27.387Z,54.77
2022-12-16T03:22:27.382Z,63.06
2022-12-16T03:23:27.375Z,59.52
2022-12-16T03:24:27.842Z,64.16
2022-12-16T03:25:27.362Z,59.22
2022-12-16T03:26:27.354Z,54.02
2022-12-16T03:27:27.345Z,54.40
2022-12-16T03:28:27.341Z,55.03
2022-12-16T03:29:27.365Z,55.54
2022-12-16T03:30:27.384Z,48.31
2022-12-16T03:31:27.312Z,55.93
2022-12-16T03:32:27.314Z,59.14
2022-12-16T03:33:27.303Z,56.36
2022-12-16T03:34:27.325Z,55.77
2022-12-16T03:35:27.289Z,58.70
2022-12-16T03:36:27.281Z,59.44
2022-12-16T03:37:27.276Z,66.15
2022-12-16T03:38:27.272Z,61.74
2022-12-16T03:39:27.287Z,58.57
2022-12-16T03:40:27.257Z,54.45
2022-12-16T03:41:27.249Z,58.06
2022-12-16T03:42:27.245Z,63.56
2022-12-16T03:43:27.238Z,54.77
2022-12-16T03:44:27.256Z,54.03
2022-12-16T03:45:27.219Z,52.94
2022-12-16T03:46:27.249Z,52.56
2022-12-16T03:47:27.206Z,56.91
2022-12-16T03:48:27.203Z,55.69
2022-12-16T03:49:27.229Z,57.75
2022-12-16T03:50:27.187Z,51.66
2022-12-16T03:51:27.177Z,55.28
2022-12-16T03:52:27.172Z,59.08
2022-12-16T03:53:27.177Z,57.19
2022-12-16T03:54:27.183Z,52.55
2022-12-16T03:55:27.151Z,61.54
2022-12-16T03:56:27.182Z,58.61
2022-12-16T03:57:27.134Z,59.39
2022-12-16T03:58:27.134Z,59.77
2022-12-16T03:59:27.157Z,57.17
2022-12-16T04:00:27.115Z,56.99
2022-12-16T04:01:27.185Z,60.24
2022-12-16T04:02:27.309Z,59.51
2022-12-16T04:03:27.203Z,62.40
2022-12-16T04:04:27.118Z,59.32
2022-12-16T04:05:27.108Z,60.67
2022-12-16T04:06:27.073Z,61.39
2022-12-16T04:07:27.065Z,63.74
2022-12-16T04:08:27.058Z,62.58
2022-12-16T04:09:27.053Z,60.67
2022-12-16T04:10:27.076Z,60.08
2022-12-16T04:11:27.044Z,60.26
2022-12-16T04:12:27.032Z,61.58
2022-12-16T04:13:27.021Z,61.75
2022-12-16T04:14:27.018Z,63.36
2022-12-16T04:15:27.043Z,66.10
2022-12-16T04:16:27.065Z,63.23
2022-12-16T04:17:26.999Z,59.79
2022-12-16T04:18:26.998Z,64.15
2022-12-16T04:19:26.975Z,66.51
2022-12-16T04:20:28.006Z,60.20
2022-12-16T04:21:26.975Z,60.74
2022-12-16T04:22:26.966Z,66.27
2022-12-16T04:23:26.957Z,61.08
2022-12-16T04:24:26.961Z,63.57
2022-12-16T04:25:26.972Z,59.26
2022-12-16T04:26:26.945Z,62.14
2022-12-16T04:27:26.923Z,64.61
2022-12-16T04:28:26.924Z,61.68
2022-12-16T04:29:26.950Z,63.00
2022-12-16T04:30:26.941Z,58.88
2022-12-16T04:31:26.931Z,61.12
2022-12-16T04:32:26.899Z,62.51
2022-12-16T04:33:26.894Z,67.40
2022-12-16T04:34:26.891Z,60.27
2022-12-16T04:35:26.898Z,60.49
2022-12-16T04:36:26.874Z,62.88
2022-12-16T04:37:26.864Z,63.32
2022-12-16T04:38:26.856Z,61.76
2022-12-16T04:39:26.851Z,57.61
2022-12-16T04:40:26.875Z,59.23
2022-12-16T04:41:26.834Z,63.88
2022-12-16T04:42:26.828Z,62.81
2022-12-16T04:43:26.821Z,65.45
2022-12-16T04:44:26.816Z,64.76
2022-12-16T04:45:26.830Z,60.80
2022-12-16T04:46:26.871Z,63.26
2022-12-16T04:47:26.790Z,60.67
2022-12-16T04:48:26.791Z,60.58
2022-12-16T04:49:26.780Z,62.71
2022-12-16T04:50:26.797Z,66.71
2022-12-16T04:51:26.765Z,62.26
2022-12-16T04:52:26.753Z,62.58
2022-12-16T04:53:26.747Z,58.16
2022-12-16T04:54:26.743Z,61.71
2022-12-16T04:55:26.739Z,66.87
2022-12-16T04:56:26.755Z,64.35
2022-12-16T04:57:26.723Z,57.77
2022-12-16T04:58:26.713Z,57.97
2022-12-16T04:59:26.709Z,63.00
2022-12-16T05:00:26.700Z,61.93
2022-12-16T05:01:26.795Z,60.50
2022-12-16T05:02:26.867Z,61.19
2022-12-16T05:03:26.716Z,63.01
2022-12-16T05:04:26.672Z,61.22
2022-12-16T05:05:26.672Z,66.00
2022-12-16T05:06:26.697Z,63.44
2022-12-16T05:07:26.657Z,62.61
2022-12-16T05:08:26.645Z,61.50
2022-12-16T05:09:26.646Z,63.48
2022-12-16T05:10:26.639Z,58.75
2022-12-16T05:11:26.655Z,62.44
2022-12-16T05:12:26.622Z,60.54
2022-12-16T05:13:26.619Z,66.57
2022-12-16T05:14:26.616Z,62.56
2022-12-16T05:15:26.605Z,61.54
2022-12-16T05:16:26.682Z,65.63
2022-12-16T05:17:26.584Z,63.73
2022-12-16T05:18:26.585Z,61.82
2022-12-16T05:19:31.645Z,66.78
2022-12-16T05:20:27.567Z,66.93
2022-12-16T05:21:26.597Z,65.10
2022-12-16T05:22:26.556Z,64.36
2022-12-16T05:23:26.546Z,64.41
2022-12-16T05:24:26.540Z,64.94
2022-12-16T05:25:26.538Z,67.22
2022-12-16T05:26:26.562Z,63.63
2022-12-16T05:27:26.526Z,63.45
2022-12-16T05:28:26.521Z,61.04
2022-12-16T05:29:26.508Z,54.21
2022-12-16T05:30:31.963Z,64.69
2022-12-16T05:31:28.592Z,63.33
2022-12-16T05:32:27.490Z,64.07
2022-12-16T05:33:26.482Z,61.37
2022-12-16T05:34:26.480Z,60.91
2022-12-16T05:35:26.474Z,66.61
2022-12-16T05:36:26.463Z,65.59
2022-12-16T05:37:26.480Z,61.49
2022-12-16T05:38:26.451Z,63.76
2022-12-16T05:39:26.445Z,62.83
2022-12-16T05:40:26.447Z,65.77
2022-12-16T05:41:26.423Z,61.00
2022-12-16T05:42:26.469Z,57.96
2022-12-16T05:43:26.413Z,63.76
2022-12-16T05:44:26.406Z,60.66
2022-12-16T05:45:26.394Z,64.50
2022-12-16T05:46:26.544Z,63.15
2022-12-16T05:47:26.440Z,64.61
2022-12-16T05:48:26.404Z,62.40
2022-12-16T05:49:26.385Z,63.49
2022-12-16T05:50:26.437Z,63.51
2022-12-16T05:51:26.360Z,62.02
2022-12-16T05:52:26.375Z,62.13
2022-12-16T05:53:26.340Z,63.20
2022-12-16T05:54:26.330Z,62.26
2022-12-16T05:55:30.584Z,64.11
2022-12-16T05:56:28.311Z,60.08
2022-12-16T05:57:26.344Z,65.11
2022-12-16T05:58:26.319Z,63.31
2022-12-16T05:59:26.295Z,59.83
2022-12-16T06:00:26.295Z,64.51
2022-12-16T06:01:26.315Z,62.72
2022-12-16T06:02:26.421Z,60.34
2022-12-16T06:03:26.430Z,65.16
2022-12-16T06:04:26.302Z,65.11
2022-12-16T06:05:26.255Z,65.44
2022-12-16T06:06:26.245Z,62.53
2022-12-16T06:07:26.266Z,66.19
2022-12-16T06:08:27.230Z,63.94
2022-12-16T06:09:26.223Z,62.84
2022-12-16T06:10:26.215Z,62.66
2022-12-16T06:11:26.208Z,64.57
2022-12-16T06:12:26.200Z,63.49
2022-12-16T06:13:26.217Z,61.81
2022-12-16T06:14:26.183Z,60.96
2022-12-16T06:15:26.193Z,64.17
2022-12-16T06:16:26.199Z,62.87
2022-12-16T06:17:26.171Z,60.79
2022-12-16T06:18:26.185Z,62.41
2022-12-16T06:19:26.151Z,63.94
2022-12-16T06:20:26.144Z,62.48
2022-12-16T06:21:26.134Z,62.13
2022-12-16T06:22:26.128Z,63.12
2022-12-16T06:23:26.145Z,62.49
2022-12-16T06:24:26.126Z,62.92
2022-12-16T06:25:26.107Z,63.99
2022-12-16T06:26:26.100Z,65.02
2022-12-16T06:27:26.095Z,63.04
2022-12-16T06:28:26.111Z,63.77
2022-12-16T06:29:26.078Z,63.13
2022-12-16T06:30:26.070Z,64.10
2022-12-16T06:31:26.106Z,64.22
2022-12-16T06:32:26.051Z,63.80
2022-12-16T06:33:26.074Z,64.05
2022-12-16T06:34:26.046Z,65.83
2022-12-16T06:35:26.036Z,66.90
2022-12-16T06:36:26.026Z,68.33
2022-12-16T06:37:26.022Z,65.36
2022-12-16T06:38:26.041Z,63.88
2022-12-16T06:39:27.007Z,62.00
2022-12-16T06:40:25.999Z,66.74
2022-12-16T06:41:25.989Z,63.85
2022-12-16T06:42:25.983Z,64.26
2022-12-16T06:43:26.005Z,62.37
2022-12-16T06:44:25.965Z,66.64
2022-12-16T06:45:31.424Z,65.12
2022-12-16T06:46:28.010Z,62.75
2022-12-16T06:47:25.964Z,67.39
2022-12-16T06:48:25.994Z,66.81
2022-12-16T06:49:25.937Z,61.88
2022-12-16T06:50:25.928Z,66.10
2022-12-16T06:51:25.916Z,62.62
2022-12-16T06:52:25.908Z,63.54
2022-12-16T06:53:25.933Z,65.85
2022-12-16T06:54:25.901Z,64.08
2022-12-16T06:55:25.891Z,65.01
2022-12-16T06:56:25.881Z,63.36
2022-12-16T06:57:25.878Z,56.86
2022-12-16T06:58:25.903Z,63.43
2022-12-16T06:59:25.858Z,65.61
2022-12-16T07:00:25.856Z,63.12
2022-12-16T07:01:25.899Z,61.57
2022-12-16T07:02:25.906Z,64.99
2022-12-16T07:03:25.865Z,61.35
2022-12-16T07:04:25.828Z,60.48
2022-12-16T07:05:25.826Z,62.92
2022-12-16T07:06:25.818Z,63.12
2022-12-16T07:07:25.824Z,61.83
2022-12-16T07:08:25.831Z,61.93
2022-12-16T07:09:25.792Z,63.89
2022-12-16T07:10:25.784Z,60.26
2022-12-16T07:11:25.782Z,61.60
2022-12-16T07:12:25.771Z,62.37
2022-12-16T07:13:25.785Z,62.61
2022-12-16T07:14:26.757Z,61.81
2022-12-16T07:15:25.758Z,64.58
2022-12-16T07:16:25.815Z,63.60
2022-12-16T07:17:25.738Z,65.87
2022-12-16T07:18:25.732Z,62.53
2022-12-16T07:19:25.749Z,63.30
2022-12-16T07:20:25.717Z,60.96
2022-12-16T07:21:25.706Z,63.01
2022-12-16T07:22:25.699Z,65.11
2022-12-16T07:23:25.692Z,62.44
2022-12-16T07:24:25.862Z,63.28
2022-12-16T07:25:25.676Z,61.75
2022-12-16T07:26:25.666Z,62.49
2022-12-16T07:27:25.661Z,64.09
2022-12-16T07:28:25.655Z,63.81
2022-12-16T07:29:25.669Z,61.89
2022-12-16T07:30:25.637Z,63.69
2022-12-16T07:31:25.653Z,58.67
2022-12-16T07:32:25.631Z,60.14
2022-12-16T07:33:25.622Z,63.82
2022-12-16T07:34:25.642Z,63.31
2022-12-16T07:35:25.607Z,62.85
2022-12-16T07:36:25.601Z,64.03
2022-12-16T07:37:25.599Z,64.40
2022-12-16T07:38:25.603Z,60.13
2022-12-16T07:39:25.609Z,64.52
2022-12-16T07:40:25.587Z,65.94
2022-12-16T07:41:25.575Z,63.32
2022-12-16T07:42:25.558Z,63.29
2022-12-16T07:43:25.544Z,64.52
2022-12-16T07:44:26.570Z,65.54
2022-12-16T07:45:25.593Z,62.33
2022-12-16T07:46:25.600Z,65.79
2022-12-16T07:47:25.528Z,65.66
2022-12-16T07:48:25.520Z,64.02
2022-12-16T07:49:25.539Z,61.07
2022-12-16T07:50:25.505Z,62.87
2022-12-16T07:51:25.503Z,64.24
2022-12-16T07:52:25.516Z,65.86
2022-12-16T07:53:30.925Z,63.88
2022-12-16T07:54:27.515Z,66.61
2022-12-16T07:55:25.473Z,61.90
2022-12-16T07:56:25.459Z,64.36
2022-12-16T07:57:25.456Z,64.88
2022-12-16T07:58:25.486Z,66.68
2022-12-16T07:59:25.495Z,65.35
2022-12-16T08:00:25.442Z,62.71
2022-12-16T08:01:25.526Z,64.22
2022-12-16T08:02:25.633Z,64.91
2022-12-16T08:03:25.502Z,64.25
2022-12-16T08:04:25.399Z,63.49
2022-12-16T08:05:25.411Z,62.86
2022-12-16T08:06:26.387Z,58.83
2022-12-16T08:07:25.380Z,65.75
2022-12-16T08:08:25.376Z,61.86
2022-12-16T08:09:25.365Z,65.09
2022-12-16T08:10:25.385Z,64.72
2022-12-16T08:11:25.353Z,62.48
2022-12-16T08:12:25.349Z,65.88
2022-12-16T08:13:25.924Z,61.56
2022-12-16T08:14:26.365Z,59.38
2022-12-16T08:15:25.357Z,63.13
2022-12-16T08:16:25.413Z,60.78
2022-12-16T08:17:25.313Z,62.07
2022-12-16T08:18:25.295Z,63.39
2022-12-16T08:19:26.309Z,61.23
2022-12-16T08:20:25.320Z,63.55
2022-12-16T08:21:25.285Z,64.54
2022-12-16T08:22:25.279Z,64.34
2022-12-16T08:23:25.268Z,61.12
2022-12-16T08:24:25.267Z,63.27
2022-12-16T08:25:25.278Z,61.36
2022-12-16T08:26:25.247Z,61.29
2022-12-16T08:27:25.240Z,59.12
2022-12-16T08:28:25.238Z,62.60
2022-12-16T08:29:43.611Z,62.26
2022-12-16T08:30:27.409Z,63.65
2022-12-16T08:31:25.259Z,59.59
2022-12-16T08:32:25.203Z,63.52
2022-12-16T08:33:25.197Z,64.27
2022-12-16T08:34:25.193Z,63.20
2022-12-16T08:35:25.212Z,62.37
2022-12-16T08:36:25.178Z,64.38
2022-12-16T08:37:25.170Z,63.97
2022-12-16T08:38:25.165Z,61.61
2022-12-16T08:39:25.156Z,63.75
2022-12-16T08:40:35.390Z,63.18
2022-12-16T08:41:27.146Z,66.00
2022-12-16T08:42:25.138Z,64.21
2022-12-16T08:43:25.126Z,63.79
2022-12-16T08:44:25.123Z,65.15
2022-12-16T08:45:25.144Z,62.21
2022-12-16T08:46:25.168Z,64.54
2022-12-16T08:47:25.103Z,64.76
2022-12-16T08:48:25.092Z,62.32
2022-12-16T08:49:25.093Z,63.72
2022-12-16T08:50:25.149Z,64.65
2022-12-16T08:51:25.076Z,60.31
2022-12-16T08:52:25.085Z,64.45
2022-12-16T08:53:25.092Z,63.30
2022-12-16T08:54:25.059Z,63.72
2022-12-16T08:55:29.471Z,63.59
2022-12-16T08:56:26.037Z,64.63
2022-12-16T08:57:25.031Z,63.39
2022-12-16T08:58:25.023Z,65.30
2022-12-16T08:59:25.019Z,64.27
2022-12-16T09:00:25.042Z,65.08
2022-12-16T09:01:25.136Z,62.03
2022-12-16T09:02:25.301Z,67.13
2022-12-16T09:03:25.047Z,64.18
2022-12-16T09:04:24.982Z,63.38
2022-12-16T09:05:24.977Z,64.58
2022-12-16T09:06:24.994Z,60.87
2022-12-16T09:07:24.963Z,62.11
2022-12-16T09:08:24.977Z,63.06
2022-12-16T09:09:24.950Z,61.38
2022-12-16T09:10:24.942Z,63.60
2022-12-16T09:11:24.950Z,62.60
2022-12-16T09:12:25.927Z,63.09
2022-12-16T09:13:24.924Z,63.37
2022-12-16T09:14:24.919Z,62.18
2022-12-16T09:15:24.958Z,64.29
2022-12-16T09:16:24.951Z,62.63
2022-12-16T09:17:24.893Z,60.32
2022-12-16T09:18:24.886Z,59.35
2022-12-16T09:19:24.882Z,62.15
2022-12-16T09:20:24.879Z,63.50
2022-12-16T09:21:27.707Z,68.89
2022-12-16T09:22:25.856Z,60.20
2022-12-16T09:23:24.849Z,63.35
2022-12-16T09:24:24.849Z,64.23
2022-12-16T09:25:24.841Z,63.23
2022-12-16T09:26:24.888Z,62.69
2022-12-16T09:27:24.829Z,62.90
2022-12-16T09:28:24.814Z,64.44
2022-12-16T09:29:24.805Z,62.98
2022-12-16T09:30:24.800Z,63.91
2022-12-16T09:31:24.900Z,63.06
2022-12-16T09:32:24.784Z,64.15
2022-12-16T09:33:24.781Z,65.33
2022-12-16T09:34:24.787Z,62.29
2022-12-16T09:35:24.792Z,63.83
2022-12-16T09:36:24.862Z,63.37
2022-12-16T09:37:24.750Z,63.56
2022-12-16T09:38:24.740Z,65.38
2022-12-16T09:39:24.730Z,65.55
2022-12-16T09:40:24.722Z,62.50
2022-12-16T09:41:24.745Z,63.56
2022-12-16T09:42:24.709Z,65.00
2022-12-16T09:43:24.707Z,63.29
2022-12-16T09:44:24.699Z,64.53
2022-12-16T09:45:24.689Z,63.31
2022-12-16T09:46:24.757Z,64.51
2022-12-16T09:47:24.692Z,65.55
2022-12-16T09:48:24.670Z,63.16
2022-12-16T09:49:24.657Z,64.81
2022-12-16T09:50:24.654Z,64.86
2022-12-16T09:51:24.671Z,63.17
2022-12-16T09:52:24.638Z,64.26
2022-12-16T09:53:24.630Z,66.43
2022-12-16T09:54:24.623Z,62.53
2022-12-16T09:55:24.639Z,64.33
2022-12-16T09:56:24.642Z,64.25
2022-12-16T09:57:24.601Z,66.47
2022-12-16T09:58:24.596Z,61.83
2022-12-16T09:59:24.590Z,67.56
2022-12-16T10:00:24.585Z,66.16
2022-12-16T10:01:24.685Z,63.63
2022-12-16T10:02:24.737Z,63.00
2022-12-16T10:03:24.660Z,63.77
2022-12-16T10:04:24.598Z,63.31
2022-12-16T10:05:24.546Z,62.72
2022-12-16T10:06:24.598Z,62.34
2022-12-16T10:07:24.530Z,63.95
2022-12-16T10:08:24.524Z,64.61
2022-12-16T10:09:24.518Z,62.85
2022-12-16T10:10:24.507Z,61.82
2022-12-16T10:11:24.531Z,66.53
2022-12-16T10:12:24.499Z,64.33
2022-12-16T10:13:24.486Z,64.47
2022-12-16T10:14:24.481Z,63.46
2022-12-16T10:15:24.468Z,61.37
2022-12-16T10:16:24.559Z,64.68
2022-12-16T10:17:24.454Z,65.12
2022-12-16T10:18:24.482Z,64.30
2022-12-16T10:19:24.439Z,61.92
2022-12-16T10:20:24.431Z,63.74
2022-12-16T10:21:24.450Z,65.23
2022-12-16T10:22:24.430Z,68.32
2022-12-16T10:23:24.424Z,62.53
2022-12-16T10:24:24.401Z,64.52
2022-12-16T10:25:25.429Z,62.25
2022-12-16T10:26:25.431Z,64.38
2022-12-16T10:27:24.384Z,62.85
2022-12-16T10:28:24.375Z,65.82
2022-12-16T10:29:24.367Z,66.96
2022-12-16T10:30:24.360Z,65.36
2022-12-16T10:31:28.218Z,65.60
2022-12-16T10:32:26.369Z,64.12
2022-12-16T10:33:24.337Z,64.24
2022-12-16T10:34:24.331Z,61.89
2022-12-16T10:35:24.323Z,65.04
2022-12-16T10:36:24.315Z,64.60
2022-12-16T10:37:24.331Z,63.17
2022-12-16T10:38:24.315Z,63.87
2022-12-16T10:39:24.317Z,62.03
2022-12-16T10:40:24.288Z,64.01
2022-12-16T10:41:24.286Z,63.11
2022-12-16T10:42:24.299Z,63.03
2022-12-16T10:43:24.274Z,62.59
2022-12-16T10:44:24.256Z,65.67
2022-12-16T10:45:24.246Z,65.54
2022-12-16T10:46:24.307Z,63.43
2022-12-16T10:47:24.265Z,65.93
2022-12-16T10:48:24.231Z,61.74
2022-12-16T10:49:24.308Z,64.62
2022-12-16T10:50:24.211Z,64.00
2022-12-16T10:51:24.207Z,65.38
2022-12-16T10:52:24.228Z,61.43
2022-12-16T10:53:24.187Z,64.77
2022-12-16T10:54:24.191Z,63.50
2022-12-16T10:55:24.191Z,63.79
2022-12-16T10:56:24.172Z,63.22
2022-12-16T10:57:24.192Z,65.83
2022-12-16T10:58:24.155Z,62.52
2022-12-16T10:59:24.144Z,64.64
2022-12-16T11:00:24.140Z,63.05
2022-12-16T11:01:24.198Z,64.46
2022-12-16T11:02:24.329Z,65.32
2022-12-16T11:03:24.288Z,62.30
2022-12-16T11:04:24.183Z,62.41
2022-12-16T11:05:24.107Z,65.88
2022-12-16T11:06:24.097Z,63.90
2022-12-16T11:07:24.119Z,62.80
2022-12-16T11:08:24.086Z,63.64
2022-12-16T11:09:24.074Z,62.94
2022-12-16T11:10:24.128Z,64.47
2022-12-16T11:11:24.059Z,62.71
2022-12-16T11:12:24.111Z,63.22
2022-12-16T11:13:24.044Z,65.67
2022-12-16T11:14:24.039Z,64.05
2022-12-16T11:15:31.199Z,66.78
2022-12-16T11:16:26.124Z,64.92
2022-12-16T11:17:24.015Z,65.38
2022-12-16T11:18:24.039Z,63.78
2022-12-16T11:19:23.998Z,65.18
2022-12-16T11:20:24.003Z,62.55
2022-12-16T11:21:24.011Z,62.10
2022-12-16T11:22:23.973Z,65.02
2022-12-16T11:23:24.002Z,64.72
2022-12-16T11:24:23.963Z,62.36
2022-12-16T11:25:23.955Z,64.33
2022-12-16T11:26:23.946Z,65.53
2022-12-16T11:27:23.960Z,66.14
2022-12-16T11:28:23.960Z,64.78
2022-12-16T11:29:23.921Z,63.21
2022-12-16T11:30:23.918Z,60.38
2022-12-16T11:31:23.934Z,64.97
2022-12-16T11:32:23.896Z,64.04
2022-12-16T11:33:23.917Z,63.59
2022-12-16T11:34:23.889Z,64.25
2022-12-16T11:35:23.877Z,64.68
2022-12-16T11:36:23.894Z,63.06
2022-12-16T11:37:23.864Z,66.09
2022-12-16T11:38:23.888Z,63.31
2022-12-16T11:39:23.845Z,63.77
2022-12-16T11:40:23.842Z,63.30
2022-12-16T11:41:23.835Z,65.70
2022-12-16T11:42:23.825Z,64.26
2022-12-16T11:43:23.843Z,63.63
2022-12-16T11:44:23.815Z,64.40
2022-12-16T11:45:23.805Z,66.67
2022-12-16T11:46:23.842Z,65.54
2022-12-16T11:47:23.790Z,64.40
2022-12-16T11:48:23.807Z,66.32
2022-12-16T11:49:25.421Z,65.31
2022-12-16T11:50:24.763Z,66.06
2022-12-16T11:51:23.762Z,66.55
2022-12-16T11:52:39.218Z,65.48
2022-12-16T11:53:25.777Z,69.55
2022-12-16T11:54:23.736Z,66.31
2022-12-16T11:55:41.709Z,66.07
2022-12-16T11:56:25.755Z,66.70
2022-12-16T11:57:23.760Z,66.36
2022-12-16T11:58:23.733Z,68.14
2022-12-16T11:59:24.297Z,64.92
2022-12-16T12:00:23.690Z,66.56
2022-12-16T12:01:23.735Z,67.45
2022-12-16T12:02:23.725Z,69.13
2022-12-16T12:03:23.884Z,66.43
2022-12-16T12:04:23.725Z,67.29
2022-12-16T12:05:23.655Z,64.31
2022-12-16T12:06:23.645Z,68.18
2022-12-16T12:07:23.644Z,66.95
2022-12-16T12:08:23.653Z,66.68
2022-12-16T12:09:23.624Z,67.17
2022-12-16T12:10:23.667Z,67.34
2022-12-16T12:11:23.597Z,67.50
2022-12-16T12:12:24.600Z,67.28
2022-12-16T12:13:23.621Z,69.33
2022-12-16T12:14:23.593Z,67.42
2022-12-16T12:15:23.583Z,69.37
2022-12-16T12:16:23.613Z,68.33
2022-12-16T12:17:23.569Z,68.01
2022-12-16T12:18:23.552Z,66.51
2022-12-16T12:19:23.572Z,68.65
2022-12-16T12:20:23.546Z,67.65
2022-12-16T12:21:23.535Z,70.29
2022-12-16T12:22:23.526Z,67.15
2022-12-16T12:23:23.515Z,66.33
2022-12-16T12:24:23.539Z,67.15
2022-12-16T12:25:23.509Z,71.48
2022-12-16T12:26:23.497Z,67.42
2022-12-16T12:27:23.488Z,66.07
2022-12-16T12:28:23.482Z,66.65
2022-12-16T12:29:23.500Z,67.35
2022-12-16T12:30:23.477Z,67.30
2022-12-16T12:31:23.515Z,69.18
2022-12-16T12:32:23.453Z,69.34
2022-12-16T12:33:23.453Z,68.07
2022-12-16T12:34:23.462Z,64.60
2022-12-16T12:35:23.430Z,67.56
2022-12-16T12:36:24.429Z,67.08
2022-12-16T12:37:23.425Z,68.06
2022-12-16T12:38:23.446Z,68.33
2022-12-16T12:39:23.425Z,66.37
2022-12-16T12:40:23.403Z,67.33
2022-12-16T12:41:23.390Z,65.54
2022-12-16T12:42:23.394Z,69.21
2022-12-16T12:43:23.372Z,68.19
2022-12-16T12:44:24.736Z,68.77
2022-12-16T12:45:23.356Z,68.37
2022-12-16T12:46:23.393Z,69.81
2022-12-16T12:47:23.341Z,69.03
2022-12-16T12:48:23.331Z,68.29
2022-12-16T12:49:23.359Z,63.90
2022-12-16T12:50:23.319Z,71.85
2022-12-16T12:51:23.308Z,66.78
2022-12-16T12:52:23.307Z,67.37